Time;durP1;ratioP1;P1;durP2;ratioP2;P2;SDS_P1;SDS_P2;PMS_P1;PMS_P2;Temp;Humidity;BMP_temperature;BMP_pressure;BME280_temperature;BME280_humidity;BME280_pressure;Samples;Min_cycle;Max_cycle;Signal;HPM_P1;HPM_P2
2023/02/07 00:01:56;;;;;;;;;11.50;9.00;;;;;5.78;60.14;102808.69;6273621;22;45440;-74
2023/02/07 00:04:21;;;;;;;;;7.75;7.75;;;;;5.81;60.43;102819.06;6273309;22;45517;-76
2023/02/07 00:06:47;;;;;;;;;8.75;7.00;;;;;5.74;60.28;102806.16;6272290;22;46191;-73
2023/02/07 00:09:12;;;;;;;;;11.25;8.00;;;;;5.78;60.33;102811.28;6271936;22;46094;-74
2023/02/07 00:11:39;;;;;;;;;12.50;7.25;;;;;5.77;60.51;102803.53;6272182;22;45547;-74
2023/02/07 00:14:04;;;;;;;;;11.75;11.00;;;;;5.74;60.43;102799.22;6245165;22;45666;-74
2023/02/07 00:16:30;;;;;;;;;8.00;7.75;;;;;5.72;60.24;102806.16;6272113;22;45628;-75
2023/02/07 00:18:56;;;;;;;;;11.50;9.00;;;;;5.63;60.34;102788.13;6272193;22;46101;-75
2023/02/07 00:24:42;;;;;;;;;1.75;1.00;;;;;5.58;60.22;102799.47;6272526;22;45580;-72
2023/02/07 00:27:08;;;;;;;;;11.75;10.75;;;;;5.58;60.28;102797.72;6273183;22;45505;-72
2023/02/07 00:29:33;;;;;;;;;9.00;8.00;;;;;5.52;60.48;102784.81;6272540;22;45960;-77
2023/02/07 00:31:59;;;;;;;;;10.00;9.00;;;;;5.54;60.20;102797.81;6273106;22;45559;-76
2023/02/07 00:34:24;;;;;;;;;7.25;5.00;;;;;5.55;60.18;102789.13;6272593;22;45590;-75
2023/02/07 00:40:11;;;;;;;;;11.00;9.00;;;;;5.50;60.84;102781.41;6271707;22;45460;-74
2023/02/07 00:42:36;;;;;;;;;11.75;7.50;;;;;5.49;60.57;102785.75;6271600;22;45444;-74
2023/02/07 00:45:01;;;;;;;;;10.50;8.00;;;;;5.47;60.43;102789.22;6271456;22;45443;-74
2023/02/07 00:47:27;;;;;;;;;7.50;7.00;;;;;5.42;60.71;102788.44;6272809;22;46387;-74
2023/02/07 00:49:52;;;;;;;;;11.25;7.00;;;;;5.46;60.45;102788.38;6271867;22;46114;-74
2023/02/07 00:52:18;;;;;;;;;12.00;8.75;;;;;5.42;60.40;102778.91;6273724;22;45520;-73
2023/02/07 00:54:43;;;;;;;;;8.25;7.50;;;;;5.44;60.43;102778.91;6246073;22;45632;-73
2023/02/07 00:57:08;;;;;;;;;12.00;11.00;;;;;5.39;60.45;102786.78;6273891;22;47305;-73
2023/02/07 00:59:33;;;;;;;;;9.00;8.00;;;;;5.43;60.59;102798.81;6275423;22;45932;-74
2023/02/07 01:01:59;;;;;;;;;15.50;9.50;;;;;5.42;60.43;102791.03;6272409;22;45660;-74
2023/02/07 01:04:24;;;;;;;;;8.50;7.50;;;;;5.36;60.52;102781.59;6244577;22;45959;-73
2023/02/07 01:10:11;;;;;;;;;8.25;8.00;;;;;5.38;60.39;102792.84;6271767;22;45767;-75
2023/02/07 01:12:37;;;;;;;;;11.25;8.00;;;;;5.34;60.39;102785.13;6272393;22;45649;-75
2023/02/07 01:15:03;;;;;;;;;11.00;9.00;;;;;5.26;60.49;102763.56;6271729;22;45826;-71
2023/02/07 01:17:28;;;;;;;;;7.50;6.00;;;;;5.26;60.62;102774.81;6271972;22;45584;-75
2023/02/07 01:19:57;;;;;;;;;11.00;8.25;;;;;5.34;60.82;102785.97;6271834;22;45585;-75
2023/02/07 01:25:45;;;;;;;;;9.75;7.25;;;;;5.24;60.61;102766.16;6272048;22;45815;-74
2023/02/07 01:28:12;;;;;;;;;8.25;5.50;;;;;5.26;60.63;102780.00;6270831;22;47793;-73
2023/02/07 01:30:42;;;;;;;;;8.00;7.00;;;;;5.22;61.19;102769.69;6271658;22;45624;-73
2023/02/07 01:33:08;;;;;;;;;12.00;10.00;;;;;5.17;61.12;102756.78;6270883;22;45809;-74
2023/02/07 01:35:34;;;;;;;;;11.75;9.75;;;;;5.18;61.13;102770.63;6272183;22;45591;-73
2023/02/07 01:38:01;;;;;;;;;10.25;7.00;;;;;5.20;60.84;102780.09;6271496;22;46394;-75
2023/02/07 01:40:28;;;;;;;;;10.00;7.75;;;;;5.17;61.12;102763.69;6270598;22;45966;-73
2023/02/07 01:42:54;;;;;;;;;13.50;7.25;;;;;5.18;61.13;102768.03;6271976;22;45563;-75
2023/02/07 01:45:35;;;;;;;;;16.00;9.50;;;;;5.14;60.88;102776.72;6271400;22;45662;-74
2023/02/07 01:48:05;;;;;;;;;8.00;7.25;;;;;5.15;61.31;102771.50;6271865;22;45610;-73
2023/02/07 01:50:32;;;;;;;;;12.00;7.75;;;;;5.14;60.81;102776.72;6270800;22;46032;-73
2023/02/07 01:56:36;;;;;;;;;7.50;7.25;;;;;5.05;61.21;102754.34;6267344;22;45608;-74
2023/02/07 01:59:05;;;;;;;;;4.00;3.50;;;;;5.02;61.13;102742.22;6270827;22;46627;-75
2023/02/07 02:01:31;;;;;;;;;10.50;7.00;;;;;4.97;61.39;102744.03;6269797;22;46099;-74
2023/02/07 02:03:57;;;;;;;;;11.75;7.75;;;;;5.03;61.19;102748.28;6271170;22;45865;-74
2023/02/07 02:06:26;;;;;;;;;12.25;8.50;;;;;5.06;61.11;102764.72;6271131;22;45711;-75
2023/02/07 02:08:55;;;;;;;;;11.50;8.00;;;;;5.03;61.49;102763.88;6243298;22;47600;-76
2023/02/07 02:11:48;;;;;;;;;8.00;8.00;;;;;4.92;61.80;102755.38;6243426;22;48000;-75
2023/02/07 02:14:45;;;;;;;;;13.00;11.00;;;;;4.99;61.37;102757.00;6271346;22;45659;-75
2023/02/07 02:17:29;;;;;;;;;11.00;8.25;;;;;4.98;61.72;102752.69;6147642;23;45660;-75
2023/02/07 02:20:22;;;;;;;;;11.00;8.25;;;;;4.96;61.53;102744.06;6146522;23;45654;-75
2023/02/07 02:26:40;;;;;;;;;11.50;8.50;;;;;4.93;61.35;102739.78;6146850;23;45776;-75
2023/02/07 02:29:30;;;;;;;;;14.75;11.00;;;;;4.94;61.47;102732.84;6145976;23;45738;-74
2023/02/07 02:32:20;;;;;;;;;9.00;8.50;;;;;4.88;61.76;102730.31;6146450;23;45674;-73
2023/02/07 02:35:12;;;;;;;;;10.75;7.75;;;;;4.83;61.77;102722.59;6146665;23;45729;-74
2023/02/07 02:37:46;;;;;;;;;8.00;7.00;;;;;4.92;61.87;102726.78;6146354;23;45865;-74
2023/02/07 02:40:24;;;;;;;;;10.25;8.00;;;;;4.92;62.03;102722.47;6147125;23;45757;-73
2023/02/07 02:42:58;;;;;;;;;9.25;8.00;;;;;4.88;61.59;102726.00;6148349;23;46708;-76
2023/02/07 02:45:31;;;;;;;;;14.25;10.75;;;;;4.85;62.02;102727.78;6147125;23;46282;-74
2023/02/07 02:47:57;;;;;;;;;11.25;10.25;;;;;4.83;62.13;102729.53;6147414;23;45570;-76
2023/02/07 02:50:28;;;;;;;;;8.75;7.00;;;;;4.77;61.75;102729.59;6147898;23;45614;-74
2023/02/07 02:52:54;;;;;;;;;14.00;11.00;;;;;4.82;62.07;102739.03;6147574;23;47598;-75
2023/02/07 02:55:36;;;;;;;;;11.00;10.25;;;;;4.80;62.25;102746.03;6265601;22;46629;-75
2023/02/07 02:58:20;;;;;;;;;13.75;10.00;;;;;4.81;62.24;102734.72;6271518;22;45810;-75
2023/02/07 03:00:51;;;;;;;;;8.00;8.00;;;;;4.80;62.01;102734.78;6272814;22;45598;-73
2023/02/07 03:03:54;;;;;;;;;13.25;12.00;;;;;4.76;62.06;102744.31;6272177;22;46276;-76
2023/02/07 03:06:32;;;;;;;;;11.00;8.00;;;;;4.74;62.36;102738.31;6147524;23;46234;-75
2023/02/07 03:09:24;;;;;;;;;14.50;12.25;;;;;4.73;62.26;102733.97;6122133;23;45701;-75
2023/02/07 03:11:54;;;;;;;;;13.75;10.00;;;;;4.67;62.18;102728.88;6122925;23;45502;-75
2023/02/07 03:14:42;;;;;;;;;11.75;10.50;;;;;4.71;62.40;102734.88;6148266;23;45663;-75
2023/02/07 03:17:21;;;;;;;;;14.00;10.00;;;;;4.71;62.47;102729.69;6147445;23;45589;-75
2023/02/07 03:20:08;;;;;;;;;14.50;9.75;;;;;4.67;62.49;102722.81;6147586;23;45537;-75
2023/02/07 03:25:59;;;;;;;;;7.25;7.25;;;;;4.63;62.32;102720.28;6147397;23;45514;-75
2023/02/07 03:28:29;;;;;;;;;12.25;9.50;;;;;4.62;62.57;102717.69;6147415;23;45575;-75
2023/02/07 03:30:57;;;;;;;;;15.00;10.00;;;;;4.61;62.42;102723.75;6148269;23;45499;-76
2023/02/07 03:33:24;;;;;;;;;12.00;11.00;;;;;4.61;62.39;102723.75;6148383;23;45533;-75
2023/02/07 03:36:10;;;;;;;;;12.25;10.50;;;;;4.59;62.84;102725.50;6147274;23;46380;-75
2023/02/07 03:42:02;;;;;;;;;9.00;7.25;;;;;4.50;62.60;102729.06;6209645;22;45647;-75
2023/02/07 03:44:31;;;;;;;;;14.25;10.75;;;;;4.49;62.62;102729.06;6244654;22;45614;-76
2023/02/07 03:46:56;;;;;;;;;15.00;11.00;;;;;4.53;62.77;102741.16;6272010;22;46352;-74
2023/02/07 03:49:22;;;;;;;;;10.00;8.00;;;;;4.51;62.60;102748.97;6271657;22;46914;-76
2023/02/07 03:51:47;;;;;;;;;15.75;11.50;;;;;4.51;62.50;102751.56;6272749;22;45619;-75
2023/02/07 03:57:34;;;;;;;;;12.50;10.75;;;;;4.50;62.72;102744.63;6266557;22;46361;-75
2023/02/07 04:00:00;;;;;;;;;10.75;8.75;;;;;4.49;62.76;102744.66;6271224;22;46058;-75
2023/02/07 04:02:25;;;;;;;;;13.00;10.50;;;;;4.50;62.83;102754.16;6271585;22;45787;-74
2023/02/07 04:04:50;;;;;;;;;13.50;11.00;;;;;4.50;62.63;102752.41;6272329;22;45649;-76
2023/02/07 04:07:16;;;;;;;;;16.25;10.00;;;;;4.45;62.77;102743.84;6272529;22;45362;-76
2023/02/07 04:13:03;;;;;;;;;10.50;10.00;;;;;4.44;62.49;102736.91;6271831;22;45445;-75
2023/02/07 04:15:28;;;;;;;;;15.50;10.50;;;;;4.45;62.69;102749.03;6271707;22;45797;-76
2023/02/07 04:17:53;;;;;;;;;14.50;13.00;;;;;4.45;62.73;102748.16;6271607;22;47382;-76
2023/02/07 04:20:19;;;;;;;;;13.25;10.00;;;;;4.42;63.00;102759.44;6271950;22;46240;-75
2023/02/07 04:22:44;;;;;;;;;13.50;12.00;;;;;4.43;62.70;102749.91;6272459;22;45517;-76
2023/02/07 04:28:31;;;;;;;;;13.75;10.25;;;;;4.37;62.61;102744.81;6271843;22;45971;-76
2023/02/07 04:30:56;;;;;;;;;10.25;10.00;;;;;4.34;62.60;102758.66;6271867;22;45641;-74
2023/02/07 04:33:22;;;;;;;;;13.75;11.25;;;;;4.32;62.89;102755.22;6271914;22;45480;-75
2023/02/07 04:35:59;;;;;;;;;12.25;10.75;;;;;4.29;63.06;102751.81;6244267;22;45761;-73
2023/02/07 04:38:26;;;;;;;;;12.00;8.50;;;;;4.28;62.80;102756.13;6271937;22;46458;-76
2023/02/07 04:40:52;;;;;;;;;13.25;10.00;;;;;4.29;62.72;102762.19;6272151;22;46006;-75
2023/02/07 04:43:17;;;;;;;;;9.00;7.25;;;;;4.25;63.11;102748.38;6272103;22;45917;-75
2023/02/07 04:45:45;;;;;;;;;11.00;8.00;;;;;4.21;62.92;102749.31;6271560;22;45751;-75
2023/02/07 04:48:11;;;;;;;;;10.00;8.50;;;;;4.27;63.00;102757.00;6272512;22;46189;-75
2023/02/07 04:50:36;;;;;;;;;9.75;9.00;;;;;4.26;62.94;102770.00;6271494;22;47130;-76
2023/02/07 04:53:01;;;;;;;;;8.00;8.00;;;;;4.25;63.00;102769.16;6271904;22;45632;-75
2023/02/07 04:58:49;;;;;;;;;14.25;10.00;;;;;4.21;63.04;102768.28;6265549;22;45712;-76
2023/02/07 05:01:15;;;;;;;;;14.00;13.00;;;;;4.21;62.89;102765.69;6270788;22;47393;-74
2023/02/07 05:03:40;;;;;;;;;16.50;10.00;;;;;4.22;63.08;102766.56;6243887;22;45658;-75
2023/02/07 05:06:06;;;;;;;;;8.50;7.75;;;;;4.20;62.89;102766.59;6272319;22;45587;-74
2023/02/07 05:08:32;;;;;;;;;11.25;10.00;;;;;4.21;62.79;102762.28;6271677;22;45559;-75
2023/02/07 05:14:18;;;;;;;;;11.50;10.00;;;;;4.16;63.07;102770.06;6272029;22;45862;-73
2023/02/07 05:16:44;;;;;;;;;9.00;7.25;;;;;4.15;63.13;102778.75;6271997;22;45569;-74
2023/02/07 05:19:09;;;;;;;;;8.25;7.25;;;;;4.14;62.82;102782.22;6271958;22;45584;-76
2023/02/07 05:21:34;;;;;;;;;13.25;12.50;;;;;4.14;63.14;102783.94;6271099;22;46205;-76
2023/02/07 05:24:00;;;;;;;;;10.50;7.75;;;;;4.14;63.01;102783.94;6272183;22;45441;-74
2023/02/07 05:26:25;;;;;;;;;12.25;9.50;;;;;4.14;63.32;102784.81;6272333;22;45607;-75
2023/02/07 05:28:50;;;;;;;;;9.50;9.00;;;;;4.12;63.09;102775.31;6271701;22;45599;-73
2023/02/07 05:31:16;;;;;;;;;14.50;9.50;;;;;4.10;63.18;102761.53;6271349;22;47185;-73
2023/02/07 05:33:41;;;;;;;;;10.00;9.00;;;;;4.08;63.12;102765.84;6271932;22;45527;-74
2023/02/07 05:36:07;;;;;;;;;12.50;10.00;;;;;4.09;63.05;102775.34;6271246;22;45742;-74
2023/02/07 05:38:32;;;;;;;;;10.00;7.75;;;;;4.03;63.06;102770.22;6271168;22;47725;-73
2023/02/07 05:44:19;;;;;;;;;16.50;13.00;;;;;4.03;63.21;102765.03;6271775;22;45556;-73
2023/02/07 05:46:45;;;;;;;;;10.00;8.00;;;;;4.05;63.16;102761.53;6271773;22;45598;-74
2023/02/07 05:49:10;;;;;;;;;9.50;5.00;;;;;4.02;62.99;102759.00;6271130;22;46429;-75
2023/02/07 05:51:35;;;;;;;;;11.25;8.50;;;;;3.97;62.69;102759.91;6270750;22;47313;-76
2023/02/07 05:54:01;;;;;;;;;10.00;7.75;;;;;3.95;63.19;102766.81;6271234;22;45668;-75
2023/02/07 05:59:47;;;;;;;;;10.75;7.25;;;;;3.96;63.14;102784.97;6266167;22;45902;-76
2023/02/07 06:02:13;;;;;;;;;13.00;11.00;;;;;3.97;63.05;102786.69;6271852;22;45623;-76
2023/02/07 06:04:38;;;;;;;;;14.00;10.25;;;;;3.92;63.19;102767.72;6272136;22;45595;-75
2023/02/07 06:07:04;;;;;;;;;13.00;10.25;;;;;3.91;63.22;102768.59;6271213;22;45672;-74
2023/02/07 06:09:29;;;;;;;;;11.50;7.75;;;;;3.91;62.98;102789.34;6270781;22;46388;-77
2023/02/07 06:11:54;;;;;;;;;13.00;10.75;;;;;3.92;63.01;102793.66;6271831;22;46573;-76
2023/02/07 06:14:20;;;;;;;;;7.75;0.75;;;;;3.84;63.17;102787.66;6242730;22;45617;-76
2023/02/07 06:16:46;;;;;;;;;13.00;10.25;;;;;3.87;63.11;102789.38;6271252;22;45773;-75
2023/02/07 06:19:11;;;;;;;;;10.25;7.50;;;;;3.87;63.16;102789.38;6270711;22;47162;-76
2023/02/07 06:21:37;;;;;;;;;14.50;8.50;;;;;3.86;63.02;102801.47;6271371;22;46022;-75
2023/02/07 06:24:03;;;;;;;;;10.00;7.25;;;;;3.84;63.21;102800.63;6271475;22;45657;-77
2023/02/07 06:29:50;;;;;;;;;13.00;10.75;;;;;3.79;63.25;102787.69;6270915;22;45659;-74
2023/02/07 06:32:16;;;;;;;;;8.75;7.75;;;;;3.61;63.15;102761.09;6271112;22;46972;-75
2023/02/07 06:34:41;;;;;;;;;10.25;7.75;;;;;3.74;63.04;102798.97;6270627;22;45584;-74
2023/02/07 06:37:06;;;;;;;;;9.75;7.50;;;;;3.73;63.15;102799.84;6271880;22;45623;-75
2023/02/07 06:39:32;;;;;;;;;16.50;11.50;;;;;3.74;63.22;102804.16;6271019;22;45742;-75
2023/02/07 06:45:18;;;;;;;;;11.00;8.25;;;;;3.70;63.17;102805.06;6270999;22;45575;-75
2023/02/07 06:47:44;;;;;;;;;10.25;10.00;;;;;3.67;63.17;102810.28;6271767;22;45678;-73
2023/02/07 06:50:09;;;;;;;;;13.00;11.25;;;;;3.66;63.03;102795.59;6242908;22;45673;-75
2023/02/07 06:52:35;;;;;;;;;15.50;9.25;;;;;3.54;63.39;102787.91;6271348;22;45737;-76
2023/02/07 06:55:00;;;;;;;;;11.00;8.00;;;;;3.68;63.08;102817.16;6271327;22;45762;-75
2023/02/07 06:57:25;;;;;;;;;10.25;8.00;;;;;3.67;62.94;102818.06;6271862;22;45421;-76
2023/02/07 06:59:51;;;;;;;;;11.50;10.50;;;;;3.63;63.06;102808.56;6253667;22;47301;-76
2023/02/07 07:02:16;;;;;;;;;5.25;5.25;;;;;3.66;63.19;102812.00;6271377;22;46186;-76
2023/02/07 07:04:41;;;;;;;;;11.00;9.75;;;;;3.65;63.20;102815.47;6271044;22;45666;-73
2023/02/07 07:07:07;;;;;;;;;12.00;9.50;;;;;3.63;63.11;102808.56;6270626;22;45615;-73
2023/02/07 07:09:32;;;;;;;;;9.00;8.25;;;;;3.67;63.17;102821.47;6294471;22;47565;-73
2023/02/07 07:15:19;;;;;;;;;24.75;20.75;;;;;3.71;62.94;102835.28;6270617;22;45507;-73
2023/02/07 07:17:45;;;;;;;;;14.50;8.50;;;;;3.72;62.99;102848.25;6270475;22;45792;-71
2023/02/07 07:20:10;;;;;;;;;11.50;8.25;;;;;3.74;62.73;102830.94;6270524;22;45988;-73
2023/02/07 07:22:35;;;;;;;;;7.00;7.00;;;;;3.76;62.87;102839.56;6270589;22;46976;-73
2023/02/07 07:25:01;;;;;;;;;10.25;8.00;;;;;3.76;62.56;102831.81;6271424;22;45571;-74
2023/02/07 07:30:47;;;;;;;;;10.75;8.00;;;;;3.73;62.03;102837.00;6272045;22;45408;-74
2023/02/07 07:33:13;;;;;;;;;10.50;9.00;;;;;3.75;62.29;102832.66;6270711;22;45522;-73
2023/02/07 07:35:38;;;;;;;;;9.75;7.00;;;;;3.74;62.61;102836.13;6273525;22;45556;-75
2023/02/07 07:38:03;;;;;;;;;10.25;8.50;;;;;3.66;62.58;102827.56;6274690;22;45760;-72
2023/02/07 07:40:29;;;;;;;;;8.25;7.25;;;;;3.56;62.25;102806.91;6270154;22;46289;-72
2023/02/07 07:46:16;;;;;;;;;3.75;3.00;;;;;3.70;62.08;102843.94;6271790;22;45430;-72
2023/02/07 07:48:41;;;;;;;;;13.00;10.00;;;;;3.61;62.31;102838.81;6271643;22;45430;-74
2023/02/07 07:51:06;;;;;;;;;10.75;8.00;;;;;3.67;62.24;102847.41;6271357;22;46780;-73
2023/02/07 07:53:32;;;;;;;;;10.00;7.50;;;;;3.67;61.93;102851.75;6272188;22;46627;-72
2023/02/07 07:55:57;;;;;;;;;8.75;7.25;;;;;3.65;62.14;102840.53;6271268;22;45520;-73
2023/02/07 07:58:24;;;;;;;;;10.25;7.50;;;;;3.68;62.08;102853.44;6272887;22;45433;-75
2023/02/07 08:00:50;;;;;;;;;8.50;8.50;;;;;3.68;62.09;102843.94;6269752;22;46342;-73
2023/02/07 08:03:18;;;;;;;;;11.00;9.50;;;;;3.68;61.99;102846.53;6272300;22;45499;-72
2023/02/07 08:05:44;;;;;;;;;10.50;9.50;;;;;3.69;62.08;102840.47;6272211;22;45600;-73
2023/02/07 08:08:09;;;;;;;;;7.25;6.75;;;;;3.73;61.99;102849.09;6271842;22;45517;-72
2023/02/07 08:10:35;;;;;;;;;10.00;10.00;;;;;3.71;61.89;102843.94;6272122;22;46218;-73
2023/02/07 08:16:22;;;;;;;;;12.50;10.75;;;;;3.73;61.60;102851.69;6271455;22;45760;-74
2023/02/07 08:18:47;;;;;;;;;10.00;7.50;;;;;3.73;61.43;102844.78;6271841;22;45765;-73
2023/02/07 08:21:13;;;;;;;;;11.00;9.50;;;;;3.71;61.46;102843.06;6272293;22;46203;-73
2023/02/07 08:23:41;;;;;;;;;11.00;10.00;;;;;3.74;61.14;102850.81;6272011;22;46237;-74
2023/02/07 08:26:07;;;;;;;;;5.50;5.50;;;;;3.77;61.38;102861.19;6271080;22;45447;-73
2023/02/07 08:31:54;;;;;;;;;8.00;7.25;;;;;3.78;61.11;102860.28;6271621;22;46089;-73
2023/02/07 08:34:23;;;;;;;;;7.50;6.50;;;;;3.79;61.19;102862.00;6269441;22;46215;-74
2023/02/07 08:36:50;;;;;;;;;12.00;10.00;;;;;3.80;61.07;102879.28;6271224;22;45568;-73
2023/02/07 08:39:16;;;;;;;;;9.00;7.50;;;;;3.70;60.94;102852.56;6271289;22;45838;-72
2023/02/07 08:41:41;;;;;;;;;12.00;8.50;;;;;3.84;60.55;102857.66;6270942;22;47358;-72
2023/02/07 08:44:06;;;;;;;;;13.50;8.00;;;;;3.85;60.61;102854.19;6270811;22;47291;-73
2023/02/07 08:46:32;;;;;;;;;7.25;5.50;;;;;3.87;60.70;102860.25;6271593;22;45581;-73
2023/02/07 08:48:57;;;;;;;;;7.00;7.00;;;;;3.89;60.46;102865.44;6271913;22;45645;-74
2023/02/07 08:51:22;;;;;;;;;11.00;10.00;;;;;3.86;60.32;102863.69;6271636;22;46304;-73
2023/02/07 08:53:48;;;;;;;;;12.00;7.50;;;;;3.90;60.29;102872.31;6272061;22;45515;-73
2023/02/07 08:56:13;;;;;;;;;7.00;5.00;;;;;3.89;60.50;102863.66;6271649;22;45596;-74
2023/02/07 09:02:27;;;;;;;;;7.00;5.00;;;;;3.92;59.75;102857.63;6268183;22;47033;-73
2023/02/07 09:04:54;;;;;;;;;9.75;8.00;;;;;3.93;59.78;102854.16;6271197;22;46208;-73
2023/02/07 09:07:20;;;;;;;;;9.50;7.50;;;;;3.85;59.50;102843.81;6271995;22;45870;-74
2023/02/07 09:09:45;;;;;;;;;9.25;7.75;;;;;3.95;59.62;102861.03;6272071;22;45654;-73
2023/02/07 09:12:11;;;;;;;;;10.25;6.50;;;;;3.96;59.65;102860.16;6271676;22;46285;-74
2023/02/07 09:14:38;;;;;;;;;8.00;8.00;;;;;3.96;59.03;102859.31;6270809;22;46072;-74
2023/02/07 09:17:04;;;;;;;;;11.00;7.75;;;;;3.99;59.30;102869.66;6271511;22;45503;-76
2023/02/07 09:19:30;;;;;;;;;8.50;8.00;;;;;3.96;59.59;102869.69;6272078;22;45457;-77
2023/02/07 09:21:55;;;;;;;;;9.50;7.50;;;;;4.03;59.22;102880.00;6270776;22;46422;-77
2023/02/07 09:24:20;;;;;;;;;9.00;7.50;;;;;4.06;59.07;102879.09;6270888;22;46984;-77
2023/02/07 09:26:46;;;;;;;;;12.50;9.50;;;;;4.07;58.68;102870.47;6270827;22;45981;-76
2023/02/07 09:32:33;;;;;;;;;10.25;8.00;;;;;4.08;59.23;102880.81;6272029;22;45496;-76
2023/02/07 09:34:58;;;;;;;;;12.25;7.25;;;;;4.13;59.03;102894.63;6271785;22;45812;-76
2023/02/07 09:37:24;;;;;;;;;9.50;8.00;;;;;4.17;58.95;102904.09;6271246;22;45555;-73
2023/02/07 09:39:49;;;;;;;;;13.50;9.50;;;;;4.21;58.31;102898.00;6271371;22;45653;-76
2023/02/07 09:43:01;;;;;;;;;9.00;7.75;;;;;4.23;58.38;102896.25;6271046;22;47453;-76
2023/02/07 09:45:32;;;;;;;;;10.50;8.50;;;;;4.19;58.37;102879.00;6147207;23;45803;-75
2023/02/07 09:48:05;;;;;;;;;6.75;5.00;;;;;4.32;58.15;102899.66;6249367;22;45571;-75
2023/02/07 09:50:35;;;;;;;;;13.75;8.00;;;;;4.33;58.42;102901.38;6271975;22;45446;-76
2023/02/07 09:53:27;;;;;;;;;12.50;9.00;;;;;4.39;58.10;102914.28;6271912;22;46662;-76
2023/02/07 09:56:00;;;;;;;;;8.00;7.00;;;;;4.41;58.19;102910.81;6270818;22;45596;-76
2023/02/07 09:58:46;;;;;;;;;14.50;8.50;;;;;4.45;57.82;102909.06;6243855;22;46187;-74
2023/02/07 10:01:20;;;;;;;;;10.75;7.00;;;;;4.34;57.47;102882.34;6270776;22;45568;-77
2023/02/07 10:04:04;;;;;;;;;11.00;7.75;;;;;4.48;57.31;102909.06;6272033;22;46776;-78
2023/02/07 10:06:30;;;;;;;;;7.50;5.00;;;;;4.56;57.69;102920.22;6271533;22;46083;-76
2023/02/07 10:08:59;;;;;;;;;10.50;8.50;;;;;4.58;57.22;102911.53;6270919;22;45547;-75
2023/02/07 10:11:43;;;;;;;;;9.00;8.00;;;;;4.62;57.59;102910.63;6271373;22;45584;-77
2023/02/07 10:14:16;;;;;;;;;12.50;8.00;;;;;4.65;56.80;102904.53;6271338;22;46591;-75
2023/02/07 10:17:01;;;;;;;;;14.25;10.25;;;;;4.69;56.81;102911.44;6274574;22;46358;-75
2023/02/07 10:19:53;;;;;;;;;8.75;8.00;;;;;4.73;56.80;102914.84;6253792;22;45498;-76
2023/02/07 10:22:43;;;;;;;;;10.75;10.00;;;;;4.77;56.55;102914.81;6278039;22;45530;-73
2023/02/07 10:25:40;;;;;;;;;9.50;6.50;;;;;4.81;56.71;102908.69;6272218;22;45516;-75
2023/02/07 10:31:28;;;;;;;;;10.75;9.50;;;;;4.89;56.87;102909.50;6271419;22;45469;-75
2023/02/07 10:34:12;;;;;;;;;14.00;11.00;;;;;4.91;56.73;102912.91;6271141;22;45717;-77
2023/02/07 10:36:42;;;;;;;;;11.00;10.25;;;;;4.91;56.43;102894.75;6271151;22;45547;-76
2023/02/07 10:39:10;;;;;;;;;10.50;8.00;;;;;5.00;56.59;102904.19;6271182;22;45630;-77
2023/02/07 10:41:37;;;;;;;;;13.00;10.25;;;;;5.04;56.44;102901.53;6271259;22;45567;-74
2023/02/07 10:47:25;;;;;;;;;11.00;8.00;;;;;5.14;56.43;102904.00;6271149;22;45609;-77
2023/02/07 10:49:53;;;;;;;;;11.00;7.75;;;;;5.19;56.44;102903.09;6270881;22;47050;-77
2023/02/07 10:52:21;;;;;;;;;13.75;10.25;;;;;5.23;56.40;102899.59;6271871;22;45879;-76
2023/02/07 10:55:01;;;;;;;;;11.25;8.75;;;;;5.28;55.95;102897.81;6270258;22;45455;-76
2023/02/07 10:57:28;;;;;;;;;13.00;11.00;;;;;5.31;55.73;102900.34;6271448;22;45944;-77
2023/02/07 11:03:21;;;;;;;;;10.00;7.25;;;;;5.37;55.75;102902.88;6266256;22;45838;-75
2023/02/07 11:05:59;;;;;;;;;14.75;10.25;;;;;5.37;55.49;102905.47;6272397;22;45673;-74
2023/02/07 11:08:27;;;;;;;;;11.75;11.50;;;;;5.40;55.58;102907.16;6272142;22;47160;-74
2023/02/07 11:10:55;;;;;;;;;17.75;11.75;;;;;5.43;55.38;102904.53;6272971;22;46104;-76
2023/02/07 11:19:48;;;;;;;;;16.25;13.75;;;;;5.53;55.14;102893.13;6272115;22;45906;-75
2023/02/07 11:22:18;;;;;;;;;14.00;8.50;;;;;5.59;55.00;102890.44;6271822;22;46898;-77
2023/02/07 11:24:46;;;;;;;;;12.00;9.50;;;;;5.64;54.92;102903.38;6273128;22;45503;-76
2023/02/07 11:27:15;;;;;;;;;11.25;9.25;;;;;5.68;54.61;102897.25;6272423;22;45419;-76
2023/02/07 11:30:08;;;;;;;;;11.00;8.00;;;;;5.72;54.79;102876.38;6272156;22;46554;-77
2023/02/07 11:32:37;;;;;;;;;14.50;11.00;;;;;5.78;54.64;102875.44;6257588;22;46033;-78
2023/02/07 11:35:08;;;;;;;;;16.50;11.50;;;;;5.79;55.00;102875.41;6274667;22;45488;-77
2023/02/07 11:37:36;;;;;;;;;12.50;11.00;;;;;5.84;54.64;102870.16;6248344;22;45574;-76
2023/02/07 11:40:24;;;;;;;;;12.25;11.75;;;;;5.90;54.58;102867.47;6272312;22;46703;-76
2023/02/07 11:43:02;;;;;;;;;11.00;8.00;;;;;5.95;53.92;102872.63;6272713;22;46123;-76
2023/02/07 11:45:31;;;;;;;;;11.00;10.50;;;;;5.97;53.92;102869.13;6274409;22;45377;-78
2023/02/07 11:47:58;;;;;;;;;15.00;11.50;;;;;5.97;53.51;102852.66;6275272;22;45665;-77
2023/02/07 11:50:28;;;;;;;;;13.50;11.50;;;;;6.00;53.91;102861.25;6280357;22;46456;-77
2023/02/07 11:52:55;;;;;;;;;11.25;11.25;;;;;6.04;53.57;102875.97;6277929;22;46020;-78
2023/02/07 11:55:25;;;;;;;;;16.50;12.75;;;;;6.05;53.58;102861.19;6279705;22;45778;-79
2023/02/07 11:57:56;;;;;;;;;21.50;16.50;;;;;6.09;53.77;102868.06;6275130;22;45558;-77
2023/02/07 12:00:25;;;;;;;;;16.50;15.75;;;;;6.17;53.24;102874.84;6276052;22;46520;-77
2023/02/07 12:03:22;;;;;;;;;16.50;14.00;;;;;6.17;53.55;102867.06;6276490;22;46036;-73
2023/02/07 12:05:52;;;;;;;;;13.50;11.50;;;;;6.24;53.51;102871.28;6245596;22;45801;-78
2023/02/07 12:08:22;;;;;;;;;12.75;11.00;;;;;6.28;53.25;102875.53;6271866;22;45710;-76
2023/02/07 12:10:53;;;;;;;;;16.50;15.00;;;;;6.28;52.89;102861.66;6272164;22;45603;-75
2023/02/07 12:13:28;;;;;;;;;15.50;12.00;;;;;6.28;52.86;102864.28;6271830;22;46086;-75
2023/02/07 12:16:01;;;;;;;;;15.50;14.00;;;;;6.33;53.14;102865.91;6271100;22;45551;-74
2023/02/07 12:18:56;;;;;;;;;11.25;9.25;;;;;6.35;53.25;102868.50;6245946;22;45806;-79
2023/02/07 12:21:54;;;;;;;;;13.00;12.00;;;;;6.39;52.51;102857.13;6273232;22;46540;-78
2023/02/07 12:24:26;;;;;;;;;11.00;9.00;;;;;6.41;52.34;102855.38;6147610;23;46882;-75
2023/02/07 12:27:01;;;;;;;;;11.00;10.25;;;;;6.46;52.12;102858.75;6148368;23;45721;-74
2023/02/07 12:33:01;;;;;;;;;15.00;13.00;;;;;6.54;52.30;102859.47;6147363;23;45843;-76
2023/02/07 12:35:54;;;;;;;;;14.25;12.25;;;;;6.60;52.17;102848.06;6122048;23;47455;-73
2023/02/07 12:38:25;;;;;;;;;16.75;13.75;;;;;6.61;52.18;102855.88;6147503;23;45919;-70
2023/02/07 12:40:56;;;;;;;;;13.00;11.75;;;;;6.67;51.70;102853.16;6146934;23;45714;-74
2023/02/07 12:43:27;;;;;;;;;12.50;9.75;;;;;6.68;51.70;102852.28;6147113;23;46635;-74
2023/02/07 12:49:37;;;;;;;;;12.75;12.25;;;;;6.75;51.98;102851.25;6147130;23;45722;-69
2023/02/07 12:52:36;;;;;;;;;17.00;12.00;;;;;6.85;51.83;102851.94;6147887;23;45489;-78
2023/02/07 12:55:25;;;;;;;;;13.50;13.00;;;;;6.88;51.30;102849.28;6147078;23;47329;-76
2023/02/07 12:58:15;;;;;;;;;16.00;13.00;;;;;6.90;51.25;102854.47;6146995;23;46340;-73
2023/02/07 13:04:40;;;;;;;;;12.50;11.75;;;;;6.96;51.10;102843.91;6262015;22;45551;-71
2023/02/07 13:07:22;;;;;;;;;14.00;12.00;;;;;7.01;51.48;102845.53;6241254;22;46205;-75
2023/02/07 13:10:05;;;;;;;;;10.75;8.75;;;;;7.06;50.93;102845.44;6241089;22;46420;-75
2023/02/07 13:12:54;;;;;;;;;12.50;10.00;;;;;7.08;50.79;102846.25;6241354;22;45598;-75
2023/02/07 13:15:41;;;;;;;;;14.50;12.00;;;;;7.10;50.55;102837.53;6241327;22;45661;-72
2023/02/07 13:18:10;;;;;;;;;13.25;11.00;;;;;7.10;50.52;102837.53;6241052;22;45647;-70
2023/02/07 13:21:20;;;;;;;;;12.75;11.75;;;;;7.14;50.73;102849.59;6240775;22;46331;-74
2023/02/07 13:23:47;;;;;;;;;16.50;13.75;;;;;7.09;50.18;102825.38;6143738;23;46048;-75
2023/02/07 13:26:18;;;;;;;;;13.00;12.00;;;;;7.12;49.57;102827.94;6221389;22;45483;-75
2023/02/07 13:28:50;;;;;;;;;17.50;13.25;;;;;7.18;49.66;102842.56;6245794;22;45631;-73